createdAt,value
2023-01-07T00:01:48.139Z,6.22
2023-01-07T00:04:52.514Z,6.16
2023-01-07T00:07:59.203Z,5.96
2023-01-07T00:11:02.692Z,5.91
2023-01-07T00:14:08.292Z,5.82
2023-01-07T00:17:11.262Z,5.79
2023-01-07T00:20:15.964Z,5.80
2023-01-07T00:23:18.985Z,5.82
2023-01-07T00:26:23.780Z,5.79
2023-01-07T00:29:27.344Z,5.73
2023-01-07T00:32:50.885Z,5.77
2023-01-07T00:36:01.560Z,5.71
2023-01-07T00:39:07.461Z,5.68
2023-01-07T00:42:28.734Z,5.60
2023-01-07T00:45:34.109Z,5.85
2023-01-07T00:48:37.164Z,5.89
2023-01-07T00:51:41.664Z,5.84
2023-01-07T00:54:47.798Z,5.78
2023-01-07T00:57:54.614Z,5.77
2023-01-07T01:01:00.233Z,5.67
2023-01-07T01:04:03.412Z,5.63
2023-01-07T01:07:07.806Z,5.61
2023-01-07T01:10:14.777Z,5.52
2023-01-07T01:13:21.657Z,5.49
2023-01-07T01:16:24.838Z,5.50
2023-01-07T01:19:27.825Z,5.42
2023-01-07T01:22:32.419Z,5.39
2023-01-07T01:25:35.853Z,5.37
2023-01-07T01:28:39.862Z,5.41
2023-01-07T01:31:44.124Z,5.41
2023-01-07T01:34:47.345Z,5.40
2023-01-07T01:37:51.787Z,5.34
2023-01-07T01:40:55.268Z,5.45
2023-01-07T01:43:59.074Z,5.37
2023-01-07T01:47:05.580Z,5.35
2023-01-07T01:50:14.966Z,5.37
2023-01-07T01:53:23.739Z,5.35
2023-01-07T01:56:30.942Z,5.28
2023-01-07T01:59:39.029Z,5.31
2023-01-07T02:02:48.951Z,5.25
2023-01-07T02:05:53.104Z,5.27
2023-01-07T02:08:57.567Z,5.25
2023-01-07T02:12:15.471Z,5.23
2023-01-07T02:15:28.919Z,5.19
2023-01-07T02:18:50.950Z,5.16
2023-01-07T02:22:02.667Z,5.13
2023-01-07T02:25:42.026Z,5.01
2023-01-07T02:29:33.837Z,5.00
2023-01-07T02:33:15.150Z,5.00
2023-01-07T02:36:34.779Z,5.05
2023-01-07T02:39:53.134Z,5.01
2023-01-07T02:43:08.262Z,5.01
2023-01-07T02:46:22.375Z,4.97
2023-01-07T02:49:26.805Z,4.94
2023-01-07T02:52:33.786Z,5.01
2023-01-07T02:55:47.257Z,5.00
2023-01-07T02:59:23.612Z,5.02
2023-01-07T03:02:53.606Z,5.00
2023-01-07T03:06:19.194Z,4.96
2023-01-07T03:09:30.401Z,4.88
2023-01-07T03:12:37.143Z,4.83
2023-01-07T03:15:44.429Z,4.82
2023-01-07T03:18:52.413Z,4.74
2023-01-07T03:21:59.436Z,4.76
2023-01-07T03:25:06.213Z,4.75
2023-01-07T03:28:15.960Z,4.69
2023-01-07T03:31:21.780Z,4.73
2023-01-07T03:34:28.979Z,4.79
2023-01-07T03:37:35.249Z,4.78
2023-01-07T03:40:39.166Z,4.81
2023-01-07T03:43:44.907Z,4.85
2023-01-07T03:46:48.425Z,4.86
2023-01-07T03:49:51.577Z,4.86
2023-01-07T03:52:56.114Z,4.91
2023-01-07T03:56:00.881Z,4.97
2023-01-07T03:59:04.491Z,4.98
2023-01-07T04:02:08.541Z,5.08
2023-01-07T04:05:12.881Z,5.09
2023-01-07T04:08:17.318Z,5.06
2023-01-07T04:11:22.544Z,5.04
2023-01-07T04:14:26.666Z,5.05
2023-01-07T04:17:29.707Z,4.95
2023-01-07T04:20:34.623Z,5.04
2023-01-07T04:23:39.089Z,4.98
2023-01-07T04:26:42.741Z,5.06
2023-01-07T04:29:46.306Z,5.04
2023-01-07T04:32:49.779Z,5.03
2023-01-07T04:35:53.746Z,5.03
2023-01-07T04:39:01.146Z,4.83
2023-01-07T04:42:06.131Z,4.83
2023-01-07T04:45:10.577Z,4.84
2023-01-07T04:48:14.089Z,4.84
2023-01-07T04:51:20.256Z,4.84
2023-01-07T04:54:24.778Z,4.86
2023-01-07T04:57:28.995Z,5.14
2023-01-07T05:00:32.275Z,5.10
2023-01-07T05:03:35.550Z,5.14
2023-01-07T05:06:39.187Z,5.24
2023-01-07T05:09:45.292Z,5.32
2023-01-07T05:12:48.718Z,5.42
2023-01-07T05:15:54.042Z,5.52
2023-01-07T05:18:57.687Z,5.60
2023-01-07T05:22:01.759Z,5.72
2023-01-07T05:25:07.195Z,5.78
2023-01-07T05:28:12.039Z,5.76
2023-01-07T05:31:16.798Z,5.85
2023-01-07T05:34:20.623Z,5.87
2023-01-07T05:37:23.681Z,5.95
2023-01-07T05:40:28.901Z,6.01
2023-01-07T05:43:32.552Z,6.06
2023-01-07T05:46:35.816Z,6.10
2023-01-07T05:49:39.911Z,6.13
2023-01-07T05:52:43.262Z,6.18
2023-01-07T05:55:47.766Z,6.20
2023-01-07T05:58:50.762Z,6.17
2023-01-07T06:01:53.736Z,6.18
2023-01-07T06:04:56.748Z,6.22
2023-01-07T06:07:59.732Z,6.25
2023-01-07T06:11:05.808Z,6.26
2023-01-07T06:14:08.917Z,6.22
2023-01-07T06:17:11.910Z,6.24
2023-01-07T06:20:15.883Z,6.29
2023-01-07T06:23:18.999Z,6.39
2023-01-07T06:26:23.343Z,6.37
2023-01-07T06:29:26.334Z,6.36
2023-01-07T06:32:32.199Z,6.37
2023-01-07T06:35:35.349Z,6.37
2023-01-07T06:38:44.672Z,6.41
2023-01-07T06:41:48.973Z,6.42
2023-01-07T06:44:51.971Z,6.53
2023-01-07T06:47:57.410Z,6.56
2023-01-07T06:51:00.742Z,6.57
2023-01-07T06:54:03.786Z,6.63
2023-01-07T06:57:08.213Z,6.64
2023-01-07T07:00:19.434Z,6.72
2023-01-07T07:03:22.912Z,6.72
2023-01-07T07:06:25.885Z,6.70
2023-01-07T07:09:32.793Z,6.72
2023-01-07T07:12:38.280Z,6.78
2023-01-07T07:15:41.246Z,6.77
2023-01-07T07:18:45.333Z,6.83
2023-01-07T07:21:48.841Z,6.86
2023-01-07T07:24:51.917Z,6.83
2023-01-07T07:27:57.020Z,6.94
2023-01-07T07:31:00.307Z,6.97
2023-01-07T07:34:03.407Z,7.00
2023-01-07T07:37:06.444Z,7.03
2023-01-07T07:40:11.291Z,7.07
2023-01-07T07:43:24.699Z,7.11
2023-01-07T07:46:28.423Z,7.15
2023-01-07T07:49:34.372Z,7.15
2023-01-07T07:52:37.310Z,7.18
2023-01-07T07:55:41.221Z,7.18
2023-01-07T07:58:48.553Z,7.23
2023-01-07T08:01:54.205Z,7.23
2023-01-07T08:04:57.279Z,7.18
2023-01-07T08:08:00.746Z,7.27
2023-01-07T08:11:05.263Z,7.27
2023-01-07T08:14:11.038Z,7.30
2023-01-07T08:17:21.776Z,7.30
2023-01-07T08:20:24.839Z,7.34
2023-01-07T08:23:29.937Z,7.37
2023-01-07T08:26:33.048Z,7.42
2023-01-07T08:29:37.631Z,7.48
2023-01-07T08:32:43.578Z,7.52
2023-01-07T08:35:46.572Z,7.57
2023-01-07T08:44:16.264Z,7.66
2023-01-07T08:47:20.702Z,7.65
2023-01-07T08:50:24.205Z,7.71
2023-01-07T08:53:29.469Z,7.78
2023-01-07T08:56:33.479Z,7.83
2023-01-07T08:59:38.683Z,7.89
2023-01-07T09:02:43.066Z,7.96
2023-01-07T09:05:47.780Z,7.99
2023-01-07T09:08:51.263Z,7.96
2023-01-07T09:11:56.157Z,7.96
2023-01-07T09:14:59.181Z,7.95
2023-01-07T09:18:04.116Z,7.98
2023-01-07T09:21:07.439Z,8.01
2023-01-07T09:24:12.655Z,8.03
2023-01-07T09:27:16.700Z,8.07
2023-01-07T09:30:19.862Z,8.10
2023-01-07T09:33:24.212Z,8.07
2023-01-07T09:36:27.959Z,8.11
2023-01-07T09:39:31.071Z,8.16
2023-01-07T09:42:44.316Z,8.18
2023-01-07T09:45:51.975Z,8.18
2023-01-07T09:49:02.803Z,8.24
2023-01-07T09:52:12.083Z,8.23
2023-01-07T09:55:23.538Z,8.27
2023-01-07T09:58:26.910Z,8.33
2023-01-07T10:01:42.794Z,8.36
2023-01-07T10:04:56.202Z,8.42
2023-01-07T10:08:31.146Z,8.49
2023-01-07T10:11:57.591Z,8.53
2023-01-07T10:15:41.081Z,8.54
2023-01-07T10:18:55.994Z,8.51
2023-01-07T10:22:11.533Z,8.60
2023-01-07T10:25:20.761Z,8.66
2023-01-07T10:28:30.050Z,8.70
2023-01-07T10:31:36.674Z,8.69
2023-01-07T10:34:46.074Z,8.74
2023-01-07T10:37:53.792Z,8.75
2023-01-07T10:41:01.646Z,8.77
2023-01-07T10:44:39.680Z,8.85
2023-01-07T10:48:00.116Z,8.90
2023-01-07T10:51:15.753Z,9.01
2023-01-07T10:54:41.363Z,9.11
2023-01-07T10:57:45.342Z,9.23
2023-01-07T11:00:49.026Z,9.32
2023-01-07T11:03:54.601Z,9.31
2023-01-07T11:07:04.111Z,9.37
2023-01-07T11:10:16.422Z,9.47
2023-01-07T11:13:25.675Z,9.54
2023-01-07T11:16:33.058Z,9.47
2023-01-07T11:19:46.143Z,9.46
2023-01-07T11:22:51.577Z,9.50
2023-01-07T11:26:10.025Z,9.55
2023-01-07T11:29:24.430Z,9.52
2023-01-07T11:32:31.224Z,9.66
2023-01-07T11:35:37.554Z,9.74
2023-01-07T11:38:41.219Z,9.77
2023-01-07T11:41:56.230Z,9.82
2023-01-07T11:45:17.116Z,9.84
2023-01-07T11:48:27.622Z,9.89
2023-01-07T11:51:41.422Z,9.98
2023-01-07T11:54:51.756Z,9.99
2023-01-07T11:58:28.225Z,10.01
2023-01-07T12:01:25.508Z,10.08
2023-01-07T12:04:32.094Z,10.09
2023-01-07T12:07:36.291Z,10.21
2023-01-07T12:10:42.195Z,10.29
2023-01-07T12:13:53.054Z,10.34
2023-01-07T12:17:20.452Z,10.43
2023-01-07T12:20:39.281Z,10.44
2023-01-07T12:24:00.131Z,10.49
2023-01-07T12:27:16.982Z,10.42
2023-01-07T12:31:05.002Z,10.43
2023-01-07T12:34:23.333Z,10.41
2023-01-07T12:37:33.187Z,10.41
2023-01-07T12:40:43.551Z,10.34
2023-01-07T12:44:02.453Z,10.34
2023-01-07T12:47:31.973Z,10.32
2023-01-07T12:50:42.020Z,10.34
2023-01-07T12:54:00.879Z,10.40
2023-01-07T12:57:12.360Z,10.43
2023-01-07T13:00:21.896Z,10.42
2023-01-07T13:03:40.294Z,10.48
2023-01-07T13:06:49.386Z,10.53
2023-01-07T13:09:58.397Z,10.52
2023-01-07T13:13:10.659Z,10.41
2023-01-07T13:16:16.410Z,10.47
2023-01-07T13:19:20.756Z,10.46
2023-01-07T13:22:31.510Z,10.44
2023-01-07T13:25:49.397Z,10.46
2023-01-07T13:29:32.420Z,10.38
2023-01-07T13:33:02.443Z,10.43
2023-01-07T13:36:26.510Z,10.50
2023-01-07T13:39:48.058Z,10.47
2023-01-07T13:42:54.783Z,10.44
2023-01-07T13:46:02.474Z,10.38
2023-01-07T13:49:06.641Z,10.34
2023-01-07T13:53:13.945Z,10.24
2023-01-07T13:56:36.695Z,10.28
2023-01-07T13:59:49.741Z,10.28
2023-01-07T14:03:08.524Z,10.17
2023-01-07T14:06:47.972Z,10.10
2023-01-07T14:09:57.899Z,10.08
2023-01-07T14:13:19.733Z,10.02
2023-01-07T14:16:29.546Z,10.07
2023-01-07T14:19:43.814Z,10.09
2023-01-07T14:23:01.750Z,9.93
2023-01-07T14:26:19.123Z,9.97
2023-01-07T14:29:38.617Z,9.91
2023-01-07T14:32:41.662Z,9.87
2023-01-07T14:35:53.949Z,9.81
2023-01-07T14:38:59.774Z,9.73
2023-01-07T14:42:41.766Z,9.66
2023-01-07T14:45:55.877Z,9.55
2023-01-07T14:50:05.915Z,9.39
2023-01-07T14:53:49.349Z,9.30
2023-01-07T14:57:17.543Z,9.12
2023-01-07T15:00:53.432Z,9.05
2023-01-07T15:04:33.849Z,8.98
2023-01-07T15:07:39.678Z,9.02
2023-01-07T15:11:05.640Z,8.87
2023-01-07T15:14:40.580Z,8.79
2023-01-07T15:17:48.866Z,8.76
2023-01-07T15:21:08.516Z,8.68
2023-01-07T15:24:22.900Z,8.65
2023-01-07T15:27:35.077Z,8.62
2023-01-07T15:30:51.583Z,8.62
2023-01-07T15:34:08.780Z,8.59
2023-01-07T15:37:15.410Z,8.64
2023-01-07T15:40:20.975Z,8.65
2023-01-07T15:43:27.772Z,8.63
2023-01-07T15:46:33.412Z,8.65
2023-01-07T15:49:41.413Z,8.68
2023-01-07T15:52:53.035Z,8.72
2023-01-07T15:56:02.623Z,8.74
2023-01-07T15:59:09.697Z,8.74
2023-01-07T16:02:29.478Z,8.70
2023-01-07T16:05:39.648Z,8.70
2023-01-07T16:08:45.660Z,8.65
2023-01-07T16:11:50.988Z,8.68
2023-01-07T16:14:53.992Z,8.70
2023-01-07T16:17:59.332Z,8.73
2023-01-07T16:21:06.149Z,8.72
2023-01-07T16:24:13.884Z,8.75
2023-01-07T16:27:20.700Z,8.80
2023-01-07T16:30:23.800Z,8.79
2023-01-07T16:33:30.071Z,8.89
2023-01-07T16:36:43.684Z,8.88
2023-01-07T16:39:51.390Z,8.94
2023-01-07T16:43:01.798Z,9.00
2023-01-07T16:46:21.267Z,9.00
2023-01-07T16:49:29.729Z,8.99
2023-01-07T16:52:42.126Z,9.03
2023-01-07T16:55:52.835Z,9.04
2023-01-07T16:59:01.448Z,9.06
2023-01-07T17:02:23.073Z,9.10
2023-01-07T17:05:31.917Z,9.11
2023-01-07T17:08:37.244Z,9.17
2023-01-07T17:11:41.583Z,9.17
2023-01-07T17:14:49.824Z,9.20
2023-01-07T17:17:55.299Z,9.20
2023-01-07T17:21:00.519Z,9.18
2023-01-07T17:24:09.464Z,9.20
2023-01-07T17:27:23.276Z,9.20
2023-01-07T17:30:33.368Z,9.21
2023-01-07T17:33:37.952Z,9.21
2023-01-07T17:36:41.406Z,9.22
2023-01-07T17:39:45.816Z,9.23
2023-01-07T17:43:07.262Z,9.19
2023-01-07T17:46:14.950Z,9.16
2023-01-07T17:49:20.270Z,9.18
2023-01-07T17:52:25.128Z,9.17
2023-01-07T17:55:32.605Z,9.20
2023-01-07T17:58:37.982Z,9.23
2023-01-07T18:01:41.370Z,9.23
2023-01-07T18:04:44.444Z,9.22
2023-01-07T18:07:48.157Z,9.23
2023-01-07T18:11:17.582Z,9.25
2023-01-07T18:14:21.006Z,9.28
2023-01-07T18:17:24.042Z,9.30
2023-01-07T18:20:27.045Z,9.35
2023-01-07T18:23:30.318Z,9.36
2023-01-07T18:26:35.993Z,9.36
2023-01-07T18:29:39.008Z,9.35
2023-01-07T18:32:42.590Z,9.35
2023-01-07T18:35:48.752Z,9.37
2023-01-07T18:38:53.096Z,9.37
2023-01-07T18:41:57.641Z,9.42
2023-01-07T18:45:00.728Z,9.39
2023-01-07T18:48:07.497Z,9.37
2023-01-07T18:51:18.116Z,9.34
2023-01-07T18:54:22.370Z,9.33
2023-01-07T18:57:26.797Z,9.27
2023-01-07T19:00:30.432Z,9.29
2023-01-07T19:03:33.969Z,9.25
2023-01-07T19:06:39.010Z,9.23
2023-01-07T19:09:42.086Z,9.24
2023-01-07T19:12:47.426Z,9.24
2023-01-07T19:15:50.414Z,9.23
2023-01-07T19:18:53.988Z,9.28
2023-01-07T19:21:57.172Z,9.28
2023-01-07T19:25:00.172Z,9.28
2023-01-07T19:28:08.333Z,9.28
2023-01-07T19:31:12.678Z,9.32
2023-01-07T19:34:16.584Z,9.33
2023-01-07T19:37:19.943Z,9.33
2023-01-07T19:40:23.394Z,9.29
2023-01-07T19:43:28.022Z,9.32
2023-01-07T19:46:36.161Z,9.30
2023-01-07T19:49:39.188Z,9.29
2023-01-07T19:52:42.140Z,9.31
2023-01-07T19:55:45.414Z,9.31
2023-01-07T19:58:53.242Z,9.31
2023-01-07T20:01:57.742Z,9.30
2023-01-07T20:05:03.043Z,9.25
2023-01-07T20:08:07.165Z,9.26
2023-01-07T20:11:10.719Z,9.24
2023-01-07T20:14:15.674Z,9.24
2023-01-07T20:17:20.845Z,9.22
2023-01-07T20:20:24.454Z,9.21
2023-01-07T20:23:28.573Z,9.19
2023-01-07T20:26:34.400Z,9.14
2023-01-07T20:29:40.399Z,9.12
2023-01-07T20:32:43.459Z,9.13
2023-01-07T20:35:46.652Z,9.12
2023-01-07T20:38:52.523Z,9.10
2023-01-07T20:41:55.819Z,9.11
2023-01-07T20:45:00.323Z,9.11
2023-01-07T20:48:03.942Z,9.11
2023-01-07T20:51:08.977Z,9.09
2023-01-07T20:54:13.202Z,9.05
2023-01-07T20:57:16.356Z,9.06
2023-01-07T21:00:27.134Z,9.06
2023-01-07T21:03:30.211Z,9.05
2023-01-07T21:06:33.207Z,9.05
2023-01-07T21:09:36.414Z,9.04
2023-01-07T21:12:39.554Z,9.01
2023-01-07T21:15:43.843Z,9.00
2023-01-07T21:18:47.028Z,9.00
2023-01-07T21:21:50.685Z,8.95
2023-01-07T21:24:53.873Z,8.94
2023-01-07T21:27:56.882Z,8.93
2023-01-07T21:31:05.988Z,8.90
2023-01-07T21:34:10.377Z,8.90
2023-01-07T21:37:13.618Z,8.90
2023-01-07T21:40:16.987Z,8.87
2023-01-07T21:43:20.073Z,8.88
2023-01-07T21:46:24.631Z,8.87
2023-01-07T21:49:28.159Z,8.86
2023-01-07T21:52:31.306Z,8.84
2023-01-07T21:55:34.504Z,8.84
2023-01-07T21:58:38.562Z,8.83
2023-01-07T22:01:43.248Z,8.84
2023-01-07T22:04:48.529Z,8.87
2023-01-07T22:07:51.672Z,8.84
2023-01-07T22:10:55.028Z,8.83
2023-01-07T22:14:01.012Z,8.82
2023-01-07T22:17:05.608Z,8.82
2023-01-07T22:20:11.569Z,8.81
2023-01-07T22:23:17.778Z,8.78
2023-01-07T22:26:22.431Z,8.80
2023-01-07T22:29:25.773Z,8.80
2023-01-07T22:32:30.111Z,8.79
2023-01-07T22:35:34.697Z,8.74
2023-01-07T22:38:39.043Z,8.74
2023-01-07T22:41:44.738Z,8.70
2023-01-07T22:44:52.185Z,8.69
2023-01-07T22:47:56.726Z,8.66
2023-01-07T22:51:06.311Z,8.67
2023-01-07T22:54:09.644Z,8.64
2023-01-07T22:57:14.416Z,8.63
2023-01-07T23:00:39.533Z,8.62
2023-01-07T23:03:45.459Z,8.61
2023-01-07T23:06:48.746Z,8.56
2023-01-07T23:09:51.868Z,8.51
2023-01-07T23:12:54.954Z,8.50
2023-01-07T23:16:01.570Z,8.47
2023-01-07T23:19:06.545Z,8.48
2023-01-07T23:22:09.731Z,8.47
2023-01-07T23:25:15.055Z,8.48
2023-01-07T23:28:19.480Z,8.47
2023-01-07T23:31:22.593Z,8.45
2023-01-07T23:34:27.125Z,8.40
2023-01-07T23:37:30.205Z,8.42
2023-01-07T23:40:34.267Z,8.47
2023-01-07T23:43:37.369Z,8.42
2023-01-07T23:46:40.561Z,8.39
2023-01-07T23:49:45.012Z,8.38
2023-01-07T23:52:48.072Z,8.37
2023-01-07T23:55:52.640Z,8.33
2023-01-07T23:58:55.952Z,8.29
